createdAt,value
2019-01-09T00:01:58.050Z,8.70
2019-01-09T00:04:27.829Z,7.93
2019-01-09T00:06:57.587Z,16.53
2019-01-09T00:09:27.078Z,14.60
2019-01-09T00:11:56.779Z,12.87
2019-01-09T00:14:26.548Z,15.33
2019-01-09T00:16:56.574Z,13.80
2019-01-09T00:19:26.315Z,12.63
2019-01-09T00:21:55.933Z,9.07
2019-01-09T00:24:25.437Z,7.20
2019-01-09T00:26:55.292Z,7.40
2019-01-09T00:29:24.726Z,5.33
2019-01-09T00:31:54.428Z,5.27
2019-01-09T00:34:23.923Z,5.70
2019-01-09T00:36:53.515Z,6.63
2019-01-09T00:39:23.090Z,8.17
2019-01-09T00:41:52.543Z,7.83
2019-01-09T00:44:22.121Z,7.47
2019-01-09T00:46:52.070Z,7.50
2019-01-09T00:49:21.782Z,8.23
2019-01-09T00:51:51.309Z,8.77
2019-01-09T00:54:21.178Z,9.77
2019-01-09T00:56:51.050Z,22.30
2019-01-09T00:59:20.465Z,20.00
2019-01-09T01:02:01.013Z,13.40
2019-01-09T01:05:22.377Z,13.70
2019-01-09T01:08:56.815Z,11.80
2019-01-09T01:12:16.080Z,7.80
2019-01-09T01:15:37.200Z,6.17
2019-01-09T01:18:34.769Z,8.30
2019-01-09T01:21:13.041Z,17.17
2019-01-09T01:24:25.155Z,19.10
2019-01-09T01:27:03.032Z,21.70
2019-01-09T01:30:15.244Z,26.57
2019-01-09T01:33:19.488Z,25.20
2019-01-09T01:36:29.967Z,20.33
2019-01-09T01:39:46.807Z,23.37
2019-01-09T01:42:51.669Z,20.33
2019-01-09T01:45:48.938Z,19.43
2019-01-09T01:49:05.095Z,17.93
2019-01-09T01:51:59.255Z,20.03
2019-01-09T01:54:56.615Z,19.67
2019-01-09T01:58:08.502Z,17.97
2019-01-09T02:01:14.767Z,13.23
2019-01-09T02:04:13.554Z,14.80
2019-01-09T02:07:09.747Z,7.60
2019-01-09T02:09:58.442Z,7.60
2019-01-09T02:12:58.408Z,12.93
2019-01-09T02:15:53.392Z,13.23
2019-01-09T02:18:30.860Z,19.13
2019-01-09T02:21:42.961Z,16.10
2019-01-09T02:24:52.743Z,15.07
2019-01-09T02:28:00.184Z,14.70
2019-01-09T02:31:10.271Z,22.17
2019-01-09T02:33:39.925Z,17.73
2019-01-09T02:36:13.631Z,11.13
2019-01-09T02:38:40.940Z,11.93
2019-01-09T02:41:10.912Z,9.57
2019-01-09T02:43:40.634Z,9.97
2019-01-09T02:46:10.489Z,9.53
2019-01-09T02:48:40.104Z,10.77
2019-01-09T02:51:09.911Z,11.53
2019-01-09T02:53:39.457Z,12.97
2019-01-09T02:56:08.974Z,11.87
2019-01-09T02:58:38.772Z,12.40
2019-01-09T03:01:08.489Z,11.00
2019-01-09T03:03:38.150Z,11.47
2019-01-09T03:06:07.931Z,13.43
2019-01-09T03:08:37.673Z,14.80
2019-01-09T03:11:07.079Z,10.27
2019-01-09T03:13:36.677Z,8.87
2019-01-09T03:16:06.489Z,8.27
2019-01-09T03:18:36.381Z,12.07
2019-01-09T03:21:05.785Z,14.23
2019-01-09T03:23:35.179Z,15.53
2019-01-09T03:26:04.690Z,22.23
2019-01-09T03:28:34.457Z,30.47
2019-01-09T03:31:04.053Z,36.00
2019-01-09T03:33:33.750Z,37.63
2019-01-09T03:36:03.151Z,40.50
2019-01-09T03:38:32.562Z,37.50
2019-01-09T03:41:02.351Z,36.37
2019-01-09T03:43:32.239Z,39.60
2019-01-09T03:46:01.638Z,41.97
2019-01-09T03:48:31.058Z,41.40
2019-01-09T03:51:00.836Z,47.03
2019-01-09T03:53:30.692Z,42.70
2019-01-09T03:56:00.520Z,45.10
2019-01-09T03:58:30.105Z,43.50
2019-01-09T04:00:59.599Z,37.97
2019-01-09T04:03:29.593Z,34.40
2019-01-09T04:05:59.331Z,34.20
2019-01-09T04:08:29.155Z,34.27
2019-01-09T04:10:58.866Z,35.03
2019-01-09T04:13:28.661Z,37.63
2019-01-09T04:15:58.518Z,31.83
2019-01-09T04:18:28.351Z,32.07
2019-01-09T04:20:58.232Z,31.33
2019-01-09T04:23:27.809Z,38.90
2019-01-09T04:25:57.576Z,29.13
2019-01-09T04:28:27.274Z,19.63
2019-01-09T04:30:56.829Z,15.33
2019-01-09T04:33:26.640Z,23.80
2019-01-09T04:35:56.400Z,119.63
2019-01-09T04:38:25.930Z,28.27
2019-01-09T04:40:55.431Z,40.27
2019-01-09T04:43:25.140Z,36.03
2019-01-09T04:45:54.940Z,40.33
2019-01-09T04:48:24.668Z,36.00
2019-01-09T04:50:54.307Z,35.20
2019-01-09T04:53:24.098Z,41.07
2019-01-09T04:55:53.712Z,39.93
2019-01-09T04:58:23.167Z,40.47
2019-01-09T05:00:52.706Z,45.57
2019-01-09T05:03:22.556Z,44.97
2019-01-09T05:05:51.957Z,55.90
2019-01-09T05:08:21.551Z,54.10
2019-01-09T05:10:51.057Z,57.47
2019-01-09T05:13:20.911Z,49.53
2019-01-09T05:15:50.296Z,55.33
2019-01-09T05:18:19.845Z,40.67
2019-01-09T05:20:49.379Z,53.63
2019-01-09T05:23:18.911Z,46.03
2019-01-09T05:25:48.582Z,41.70
2019-01-09T05:28:18.340Z,81.67
2019-01-09T05:30:48.146Z,71.30
2019-01-09T05:33:17.727Z,72.23
2019-01-09T05:35:47.269Z,117.20
2019-01-09T05:38:17.165Z,85.67
2019-01-09T05:40:46.604Z,57.73
2019-01-09T05:43:16.141Z,56.57
2019-01-09T05:45:45.653Z,39.53
2019-01-09T05:48:15.306Z,34.10
2019-01-09T05:50:44.949Z,30.30
2019-01-09T05:53:14.358Z,29.00
2019-01-09T05:55:44.180Z,43.57
2019-01-09T05:58:13.700Z,41.07
2019-01-09T06:00:43.489Z,29.17
2019-01-09T06:03:13.076Z,26.97
2019-01-09T06:05:42.920Z,52.00
2019-01-09T06:08:12.769Z,45.77
2019-01-09T06:10:42.198Z,38.37
2019-01-09T06:13:12.031Z,47.07
2019-01-09T06:15:41.912Z,89.90
2019-01-09T06:18:11.601Z,52.97
2019-01-09T06:20:41.161Z,70.13
2019-01-09T06:23:10.982Z,84.57
2019-01-09T06:25:40.478Z,79.57
2019-01-09T06:28:10.339Z,66.10
2019-01-09T06:30:40.106Z,42.63
2019-01-09T06:33:09.510Z,37.90
2019-01-09T06:35:39.293Z,40.20
2019-01-09T06:38:08.796Z,41.37
2019-01-09T06:40:38.664Z,33.90
2019-01-09T06:43:08.242Z,33.67
2019-01-09T06:45:37.884Z,48.93
2019-01-09T06:48:07.671Z,62.23
2019-01-09T06:50:37.355Z,48.20
2019-01-09T06:53:06.926Z,37.47
2019-01-09T06:55:36.502Z,41.20
2019-01-09T06:58:05.877Z,44.73
2019-01-09T07:00:35.656Z,41.03
2019-01-09T07:03:05.416Z,77.60
2019-01-09T07:05:34.875Z,154.40
2019-01-09T07:08:04.427Z,77.23
2019-01-09T07:10:34.138Z,60.90
2019-01-09T07:13:04.054Z,142.30
2019-01-09T07:15:33.500Z,89.07
2019-01-09T07:18:03.193Z,90.47
2019-01-09T07:20:32.697Z,93.10
2019-01-09T07:23:02.291Z,65.03
2019-01-09T07:25:31.945Z,51.10
2019-01-09T07:28:01.490Z,40.30
2019-01-09T07:30:31.284Z,49.23
2019-01-09T07:33:00.709Z,70.47
2019-01-09T07:35:30.616Z,69.63
2019-01-09T07:38:00.564Z,74.93
2019-01-09T07:40:30.224Z,115.40
2019-01-09T07:42:59.653Z,78.87
2019-01-09T07:45:29.490Z,81.93
2019-01-09T07:47:58.979Z,46.03
2019-01-09T07:50:28.710Z,48.90
2019-01-09T07:52:58.350Z,98.17
2019-01-09T07:55:27.956Z,74.37
2019-01-09T07:57:57.682Z,63.03
2019-01-09T08:00:27.382Z,72.93
2019-01-09T08:02:56.775Z,60.93
2019-01-09T08:05:26.499Z,69.87
2019-01-09T08:07:56.349Z,71.17
2019-01-09T08:10:25.912Z,67.70
2019-01-09T08:12:55.666Z,68.67
2019-01-09T08:15:25.188Z,58.17
2019-01-09T08:17:54.825Z,59.13
2019-01-09T08:20:24.657Z,65.17
2019-01-09T08:22:54.416Z,65.43
2019-01-09T08:25:24.079Z,64.53
2019-01-09T08:27:53.541Z,66.80
2019-01-09T08:30:23.040Z,71.87
2019-01-09T08:32:52.951Z,72.93
2019-01-09T08:35:22.655Z,78.13
2019-01-09T08:37:52.404Z,124.83
2019-01-09T08:40:23.169Z,151.03
2019-01-09T08:42:53.049Z,96.33
2019-01-09T08:45:22.753Z,85.87
2019-01-09T08:47:52.503Z,107.77
2019-01-09T08:50:22.209Z,78.03
2019-01-09T08:52:51.605Z,77.00
2019-01-09T08:55:21.108Z,87.00
2019-01-09T08:57:50.906Z,106.97
2019-01-09T09:00:20.637Z,180.10
2019-01-09T09:02:50.173Z,99.17
2019-01-09T09:05:19.974Z,115.70
2019-01-09T09:07:57.552Z,98.93
2019-01-09T09:10:27.213Z,68.90
2019-01-09T09:12:56.656Z,74.30
2019-01-09T09:15:26.564Z,72.10
2019-01-09T09:17:56.561Z,82.87
2019-01-09T09:20:26.254Z,108.93
2019-01-09T09:22:55.638Z,112.20
2019-01-09T09:25:25.388Z,79.37
2019-01-09T09:27:55.144Z,72.73
2019-01-09T09:30:24.781Z,67.30
2019-01-09T09:32:57.477Z,72.67
2019-01-09T09:35:27.056Z,71.30
2019-01-09T09:37:56.468Z,71.37
2019-01-09T09:40:26.399Z,83.57
2019-01-09T09:42:56.195Z,76.37
2019-01-09T09:45:25.713Z,62.63
2019-01-09T09:47:55.108Z,90.80
2019-01-09T09:50:24.887Z,76.07
2019-01-09T09:52:54.692Z,75.73
2019-01-09T09:55:24.441Z,83.43
2019-01-09T09:57:54.019Z,96.40
2019-01-09T10:00:23.769Z,86.63
2019-01-09T10:02:53.406Z,80.57
2019-01-09T10:05:22.997Z,80.43
2019-01-09T10:07:52.395Z,84.23
2019-01-09T10:10:22.257Z,76.13
2019-01-09T10:12:51.664Z,73.83
2019-01-09T10:15:21.501Z,69.97
2019-01-09T10:17:51.394Z,69.10
2019-01-09T10:20:20.888Z,74.90
2019-01-09T10:22:50.616Z,74.17
2019-01-09T10:25:20.117Z,73.63
2019-01-09T10:27:49.776Z,70.23
2019-01-09T10:30:20.096Z,65.30
2019-01-09T10:32:49.648Z,79.73
2019-01-09T10:35:19.543Z,66.07
2019-01-09T10:37:49.813Z,67.90
2019-01-09T10:40:20.316Z,65.53
2019-01-09T10:42:49.805Z,64.37
2019-01-09T10:45:21.305Z,70.37
2019-01-09T10:47:51.250Z,68.33
2019-01-09T10:50:20.995Z,69.27
2019-01-09T10:52:50.880Z,74.13
2019-01-09T10:55:20.417Z,90.70
2019-01-09T10:57:50.140Z,67.10
2019-01-09T11:00:22.013Z,65.97
2019-01-09T11:02:51.771Z,69.33
2019-01-09T11:05:21.602Z,66.93
2019-01-09T11:07:51.092Z,66.20
2019-01-09T11:10:21.282Z,66.17
2019-01-09T11:12:50.812Z,76.87
2019-01-09T11:15:20.543Z,71.27
2019-01-09T11:17:50.276Z,70.30
2019-01-09T11:20:21.237Z,71.37
2019-01-09T11:22:51.065Z,118.33
2019-01-09T11:25:23.187Z,76.33
2019-01-09T11:27:52.896Z,76.97
2019-01-09T11:30:23.730Z,91.00
2019-01-09T11:32:53.224Z,81.40
2019-01-09T11:35:24.788Z,81.53
2019-01-09T11:37:54.558Z,100.43
2019-01-09T11:40:24.322Z,92.87
2019-01-09T11:42:53.914Z,96.80
2019-01-09T11:45:23.514Z,108.77
2019-01-09T11:47:53.297Z,108.63
2019-01-09T11:50:22.795Z,103.60
2019-01-09T11:52:52.683Z,98.93
2019-01-09T11:55:22.232Z,98.63
2019-01-09T11:57:51.843Z,91.93
2019-01-09T12:00:23.794Z,82.83
2019-01-09T12:02:53.378Z,73.07
2019-01-09T12:05:24.016Z,70.47
2019-01-09T12:07:53.647Z,107.80
2019-01-09T12:10:29.955Z,89.63
2019-01-09T12:12:55.851Z,373.77
2019-01-09T12:15:25.636Z,95.63
2019-01-09T12:17:55.380Z,111.47
2019-01-09T12:20:24.771Z,77.93
2019-01-09T12:22:54.754Z,97.13
2019-01-09T12:25:24.252Z,93.53
2019-01-09T12:27:54.223Z,63.27
2019-01-09T12:30:28.921Z,63.60
2019-01-09T12:32:58.840Z,52.30
2019-01-09T12:35:28.669Z,48.33
2019-01-09T12:37:58.360Z,49.67
2019-01-09T12:40:28.101Z,44.67
2019-01-09T12:42:57.514Z,77.23
2019-01-09T12:45:27.304Z,50.27
2019-01-09T12:47:56.988Z,37.07
2019-01-09T12:50:27.425Z,29.20
2019-01-09T12:52:57.174Z,33.77
2019-01-09T12:55:26.822Z,32.07
2019-01-09T12:57:56.605Z,36.90
2019-01-09T13:00:30.386Z,33.10
2019-01-09T13:03:00.172Z,37.60
2019-01-09T13:05:29.554Z,37.13
2019-01-09T13:07:58.953Z,69.27
2019-01-09T13:10:28.564Z,44.93
2019-01-09T13:12:58.209Z,63.33
2019-01-09T13:15:27.878Z,141.80
2019-01-09T13:17:57.612Z,113.00
2019-01-09T13:20:27.372Z,69.50
2019-01-09T13:22:56.897Z,73.80
2019-01-09T13:25:26.716Z,69.60
2019-01-09T13:27:56.581Z,73.00
2019-01-09T13:30:26.359Z,113.30
2019-01-09T13:32:56.071Z,86.13
2019-01-09T13:35:25.785Z,71.20
2019-01-09T13:37:55.588Z,75.90
2019-01-09T13:40:25.284Z,109.10
2019-01-09T13:42:55.004Z,86.03
2019-01-09T13:45:24.598Z,72.57
2019-01-09T13:47:54.461Z,71.57
2019-01-09T13:50:24.183Z,91.80
2019-01-09T13:52:53.929Z,77.20
2019-01-09T13:55:23.814Z,62.00
2019-01-09T13:57:53.485Z,115.53
2019-01-09T14:00:23.899Z,77.97
2019-01-09T14:02:53.308Z,57.50
2019-01-09T14:05:23.108Z,60.47
2019-01-09T14:07:52.891Z,46.87
2019-01-09T14:10:24.747Z,32.63
2019-01-09T14:12:54.481Z,50.70
2019-01-09T14:15:24.261Z,41.37
2019-01-09T14:17:53.705Z,45.47
2019-01-09T14:20:23.345Z,37.50
2019-01-09T14:22:52.965Z,37.17
2019-01-09T14:25:22.369Z,41.47
2019-01-09T14:27:51.999Z,38.47
2019-01-09T14:30:27.382Z,38.10
2019-01-09T14:32:57.203Z,38.73
2019-01-09T14:35:26.605Z,49.43
2019-01-09T14:37:56.004Z,41.20
2019-01-09T14:40:25.708Z,51.30
2019-01-09T14:42:55.454Z,42.90
2019-01-09T14:45:25.192Z,38.77
2019-01-09T14:47:54.880Z,38.83
2019-01-09T14:50:25.553Z,39.60
2019-01-09T14:52:55.099Z,78.13
2019-01-09T14:55:24.695Z,35.80
2019-01-09T14:57:54.566Z,38.70
2019-01-09T15:00:25.994Z,37.10
2019-01-09T15:02:55.961Z,35.50
2019-01-09T15:05:25.557Z,40.70
2019-01-09T15:07:55.240Z,37.37
2019-01-09T15:10:31.476Z,36.73
2019-01-09T15:13:01.114Z,44.27
2019-01-09T15:15:30.898Z,42.07
2019-01-09T15:18:00.493Z,37.80
2019-01-09T15:20:30.596Z,44.17
2019-01-09T15:23:00.284Z,50.83
2019-01-09T15:25:29.798Z,45.93
2019-01-09T15:27:59.617Z,37.47
2019-01-09T15:30:31.027Z,41.07
2019-01-09T15:33:00.725Z,37.90
2019-01-09T15:35:30.124Z,37.93
2019-01-09T15:37:59.733Z,45.43
2019-01-09T15:40:30.543Z,44.70
2019-01-09T15:43:00.583Z,40.33
2019-01-09T15:45:30.016Z,86.90
2019-01-09T15:47:59.479Z,50.47
2019-01-09T15:50:29.539Z,63.87
2019-01-09T15:52:59.030Z,73.80
2019-01-09T15:55:28.515Z,57.17
2019-01-09T15:57:58.226Z,38.07
2019-01-09T16:00:33.670Z,43.10
2019-01-09T16:03:03.581Z,40.83
2019-01-09T16:05:32.982Z,34.27
2019-01-09T16:08:02.945Z,45.53
2019-01-09T16:10:36.338Z,87.20
2019-01-09T16:13:07.240Z,80.07
2019-01-09T16:15:36.786Z,74.60
2019-01-09T16:18:06.867Z,76.33
2019-01-09T16:20:36.754Z,78.33
2019-01-09T16:23:06.179Z,74.47
2019-01-09T16:25:35.692Z,74.83
2019-01-09T16:28:06.393Z,76.17
2019-01-09T16:30:46.984Z,77.37
2019-01-09T16:33:16.589Z,85.60
2019-01-09T16:35:46.375Z,92.30
2019-01-09T16:38:15.892Z,86.80
2019-01-09T16:40:45.494Z,84.57
2019-01-09T16:43:15.637Z,111.37
2019-01-09T16:45:45.151Z,116.53
2019-01-09T16:48:16.252Z,88.13
2019-01-09T16:50:45.685Z,78.33
2019-01-09T16:53:15.158Z,71.50
2019-01-09T16:55:44.858Z,80.73
2019-01-09T16:58:14.344Z,94.70
2019-01-09T17:00:44.027Z,207.27
2019-01-09T17:03:13.456Z,178.03
2019-01-09T17:05:42.948Z,207.47
2019-01-09T17:08:12.828Z,186.23
2019-01-09T17:10:42.264Z,232.53
2019-01-09T17:13:12.024Z,265.10
2019-01-09T17:15:41.532Z,144.97
2019-01-09T17:18:11.349Z,88.03
2019-01-09T17:20:41.153Z,89.30
2019-01-09T17:23:10.827Z,89.40
2019-01-09T17:25:40.467Z,92.67
2019-01-09T17:28:10.561Z,93.07
2019-01-09T17:30:39.997Z,111.90
2019-01-09T17:33:09.540Z,92.53
2019-01-09T17:35:38.994Z,80.73
2019-01-09T17:38:08.911Z,86.40
2019-01-09T17:40:41.326Z,81.50
2019-01-09T17:43:09.710Z,90.53
2019-01-09T17:45:40.533Z,105.37
2019-01-09T17:48:10.294Z,91.40
2019-01-09T17:50:40.488Z,97.77
2019-01-09T17:53:10.264Z,90.60
2019-01-09T17:55:40.008Z,87.00
2019-01-09T17:58:09.469Z,77.30
2019-01-09T18:00:41.405Z,74.97
2019-01-09T18:03:11.178Z,81.97
2019-01-09T18:05:40.600Z,103.80
2019-01-09T18:08:11.133Z,81.70
2019-01-09T18:10:49.793Z,74.47
2019-01-09T18:13:11.865Z,70.67
2019-01-09T18:15:43.151Z,69.97
2019-01-09T18:18:12.701Z,66.07
2019-01-09T18:20:42.194Z,64.57
2019-01-09T18:23:11.618Z,69.90
2019-01-09T18:25:41.108Z,89.50
2019-01-09T18:28:12.119Z,205.93
2019-01-09T18:31:25.266Z,142.43
2019-01-09T18:34:03.143Z,104.23
2019-01-09T18:37:12.693Z,92.33
2019-01-09T18:40:01.363Z,103.63
2019-01-09T18:42:45.500Z,73.80
2019-01-09T18:46:01.902Z,76.57
2019-01-09T18:49:10.698Z,118.30
2019-01-09T18:52:11.059Z,159.87
2019-01-09T18:54:40.984Z,113.83
2019-01-09T18:57:10.471Z,88.50
2019-01-09T18:59:40.090Z,84.60
2019-01-09T19:02:11.617Z,82.13
2019-01-09T19:04:41.304Z,85.47
2019-01-09T19:07:11.353Z,77.73
2019-01-09T19:09:42.159Z,79.50
2019-01-09T19:12:12.206Z,80.50
2019-01-09T19:14:41.895Z,83.03
2019-01-09T19:17:11.860Z,78.53
2019-01-09T19:19:41.297Z,76.23
2019-01-09T19:22:10.953Z,64.97
2019-01-09T19:24:40.505Z,60.43
2019-01-09T19:27:10.350Z,66.07
2019-01-09T19:29:41.830Z,62.43
2019-01-09T19:32:11.456Z,63.37
2019-01-09T19:34:41.324Z,68.53
2019-01-09T19:37:11.023Z,64.17
2019-01-09T19:39:40.530Z,65.67
2019-01-09T19:42:10.242Z,64.53
2019-01-09T19:44:40.439Z,67.53
2019-01-09T19:47:10.224Z,72.23
2019-01-09T19:49:40.107Z,76.97
2019-01-09T19:52:09.592Z,75.17
2019-01-09T19:54:39.370Z,66.43
2019-01-09T19:57:09.099Z,73.23
2019-01-09T19:59:38.721Z,78.27
2019-01-09T20:02:08.359Z,83.67
2019-01-09T20:04:38.363Z,83.57
2019-01-09T20:07:08.030Z,79.07
2019-01-09T20:09:38.636Z,78.60
2019-01-09T20:12:08.491Z,76.97
2019-01-09T20:14:38.358Z,68.00
2019-01-09T20:17:08.179Z,72.93
2019-01-09T20:19:38.029Z,69.53
2019-01-09T20:22:07.859Z,74.57
2019-01-09T20:24:37.625Z,77.07
2019-01-09T20:27:07.093Z,78.47
2019-01-09T20:29:38.007Z,78.30
2019-01-09T20:32:07.745Z,78.90
2019-01-09T20:34:37.367Z,85.17
2019-01-09T20:37:06.981Z,114.10
2019-01-09T20:39:36.381Z,99.90
2019-01-09T20:42:06.026Z,97.93
2019-01-09T20:44:35.887Z,113.23
2019-01-09T20:47:05.857Z,158.27
2019-01-09T20:49:35.448Z,116.77
2019-01-09T20:52:05.472Z,91.23
2019-01-09T20:54:35.020Z,99.73
2019-01-09T20:57:06.347Z,92.63
2019-01-09T20:59:35.848Z,79.10
2019-01-09T21:02:05.917Z,72.10
2019-01-09T21:04:35.557Z,63.00
2019-01-09T21:07:05.600Z,65.53
2019-01-09T21:09:35.278Z,73.83
2019-01-09T21:12:05.254Z,67.73
2019-01-09T21:14:34.757Z,72.30
2019-01-09T21:17:04.783Z,64.20
2019-01-09T21:19:34.282Z,65.50
2019-01-09T21:22:04.338Z,65.07
2019-01-09T21:24:33.982Z,62.57
2019-01-09T21:27:04.224Z,64.27
2019-01-09T21:29:33.892Z,59.43
2019-01-09T21:32:03.389Z,58.87
2019-01-09T21:34:32.815Z,54.27
2019-01-09T21:37:02.605Z,49.70
2019-01-09T21:39:32.019Z,49.43
2019-01-09T21:42:02.590Z,50.77
2019-01-09T21:44:32.383Z,42.47
2019-01-09T21:47:02.078Z,41.00
2019-01-09T21:49:31.751Z,56.20
2019-01-09T21:52:01.286Z,80.50
2019-01-09T21:54:31.069Z,102.07
2019-01-09T21:57:00.783Z,108.80
2019-01-09T21:59:30.185Z,115.63
2019-01-09T22:01:59.793Z,109.37
2019-01-09T22:04:29.659Z,107.23
2019-01-09T22:06:59.155Z,107.97
2019-01-09T22:09:29.002Z,110.80
2019-01-09T22:12:02.539Z,104.77
2019-01-09T22:14:30.285Z,101.43
2019-01-09T22:16:59.793Z,111.33
2019-01-09T22:19:29.383Z,123.63
